createdAt,value
2022-10-24T00:00:01.214Z,5.78
2022-10-24T00:05:00.005Z,4.15
2022-10-24T00:09:58.768Z,6.68
2022-10-24T00:14:57.527Z,5.32
2022-10-24T00:19:59.078Z,5.63
2022-10-24T00:24:57.957Z,7.13
2022-10-24T00:29:56.963Z,5.43
2022-10-24T00:34:57.318Z,7.18
2022-10-24T00:39:56.476Z,7.13
2022-10-24T00:44:55.478Z,7.10
2022-10-24T00:50:00.981Z,6.00
2022-10-24T00:55:02.893Z,6.53
2022-10-24T01:00:06.953Z,5.57
2022-10-24T01:05:09.263Z,7.47
2022-10-24T01:10:20.374Z,4.82
2022-10-24T01:15:24.633Z,5.68
2022-10-24T01:20:46.247Z,6.95
2022-10-24T01:26:00.397Z,7.25
2022-10-24T01:31:08.781Z,7.63
2022-10-24T01:36:11.428Z,9.32
2022-10-24T01:41:14.666Z,7.97
2022-10-24T01:46:19.816Z,7.20
2022-10-24T01:51:22.531Z,7.40
2022-10-24T01:56:21.396Z,5.90
2022-10-24T02:01:25.838Z,6.88
2022-10-24T02:06:31.711Z,6.03
2022-10-24T02:11:31.465Z,10.32
2022-10-24T02:16:32.315Z,5.60
2022-10-24T02:21:37.947Z,14.32
2022-10-24T02:26:44.149Z,9.15
2022-10-24T02:31:49.664Z,7.90
2022-10-24T02:36:51.337Z,9.50
2022-10-24T02:41:52.528Z,9.88
2022-10-24T02:46:55.605Z,9.07
2022-10-24T02:51:55.111Z,13.90
2022-10-24T02:56:57.932Z,11.90
2022-10-24T03:01:58.374Z,11.75
2022-10-24T03:06:57.270Z,11.60
2022-10-24T03:11:56.118Z,13.15
2022-10-24T03:16:55.028Z,12.90
2022-10-24T03:21:55.327Z,8.95
2022-10-24T03:26:54.355Z,9.63
2022-10-24T03:31:53.345Z,6.50
2022-10-24T03:36:52.291Z,9.88
2022-10-24T03:41:53.271Z,9.77
2022-10-24T03:46:52.358Z,11.27
2022-10-24T03:51:51.281Z,10.75
2022-10-24T03:56:50.401Z,8.95
2022-10-24T04:01:50.978Z,9.85
2022-10-24T04:06:49.888Z,13.07
2022-10-24T04:11:49.260Z,8.88
2022-10-24T04:16:48.269Z,8.18
2022-10-24T04:21:49.120Z,19.77
2022-10-24T04:26:48.035Z,21.33
2022-10-24T04:31:47.045Z,22.63
2022-10-24T04:36:48.425Z,21.25
2022-10-24T04:41:47.566Z,19.20
2022-10-24T04:46:50.556Z,109.20
2022-10-24T04:51:51.606Z,158.20
2022-10-24T04:56:50.710Z,42.15
2022-10-24T05:01:49.664Z,17.58
2022-10-24T05:06:48.529Z,18.48
2022-10-24T05:11:48.575Z,13.60
2022-10-24T05:16:48.536Z,12.85
2022-10-24T05:21:48.016Z,11.63
2022-10-24T05:26:49.833Z,13.55
2022-10-24T05:31:48.712Z,20.98
2022-10-24T05:36:47.921Z,40.20
2022-10-24T05:41:48.296Z,69.35
2022-10-24T05:46:48.553Z,41.75
2022-10-24T05:51:47.273Z,21.88
2022-10-24T05:56:46.467Z,23.10
2022-10-24T06:01:46.776Z,24.38
2022-10-24T06:06:46.799Z,27.58
2022-10-24T06:11:45.674Z,19.75
2022-10-24T06:16:44.522Z,26.95
2022-10-24T06:21:44.682Z,29.55
2022-10-24T06:26:43.619Z,29.98
2022-10-24T06:31:42.417Z,27.45
2022-10-24T06:41:46.438Z,27.75
2022-10-24T06:46:46.490Z,32.30
2022-10-24T06:51:45.576Z,31.38
2022-10-24T06:56:45.822Z,21.05
2022-10-24T07:01:45.281Z,22.65
2022-10-24T07:06:44.338Z,19.60
2022-10-24T07:11:43.120Z,17.55
2022-10-24T07:16:43.351Z,16.58
2022-10-24T07:21:42.072Z,18.27
2022-10-24T07:26:40.921Z,22.52
2022-10-24T07:31:39.711Z,18.35
2022-10-24T07:36:41.575Z,13.70
2022-10-24T07:41:43.235Z,10.05
2022-10-24T07:46:43.155Z,11.20
2022-10-24T07:51:46.471Z,10.73
2022-10-24T07:56:45.327Z,8.85
2022-10-24T08:01:44.263Z,8.95
2022-10-24T08:06:44.873Z,6.65
2022-10-24T08:11:45.102Z,6.55
2022-10-24T08:16:43.874Z,11.15
2022-10-24T08:21:42.583Z,9.45
2022-10-24T08:26:41.487Z,5.88
2022-10-24T08:31:42.186Z,7.80
2022-10-24T08:36:41.133Z,7.25
2022-10-24T08:41:43.782Z,5.20
2022-10-24T08:46:50.500Z,7.95
2022-10-24T08:51:54.576Z,6.68
2022-10-24T08:56:55.837Z,5.50
2022-10-24T09:02:03.414Z,7.30
2022-10-24T09:07:04.246Z,5.65
2022-10-24T09:12:05.873Z,6.28
2022-10-24T09:17:16.002Z,3.78
2022-10-24T09:22:17.998Z,8.15
2022-10-24T09:27:23.598Z,14.20
2022-10-24T09:32:27.369Z,7.63
2022-10-24T09:37:44.306Z,4.05
2022-10-24T09:42:52.014Z,4.70
2022-10-24T09:47:58.044Z,3.47
2022-10-24T09:52:59.436Z,3.85
2022-10-24T10:03:03.521Z,3.73
2022-10-24T10:08:12.924Z,4.88
2022-10-24T10:13:24.100Z,2.55
2022-10-24T10:23:27.147Z,4.03
2022-10-24T10:33:32.610Z,4.85
2022-10-24T10:38:44.795Z,4.18
2022-10-24T10:43:55.143Z,5.97
2022-10-24T10:49:14.183Z,3.30
2022-10-24T10:54:33.744Z,4.47
2022-10-24T10:59:47.316Z,2.97
2022-10-24T11:04:58.298Z,4.97
2022-10-24T11:10:01.134Z,2.33
2022-10-24T11:15:04.984Z,4.20
2022-10-24T11:20:11.939Z,4.40
2022-10-24T11:25:22.168Z,5.47
2022-10-24T11:30:30.043Z,3.80
2022-10-24T11:35:33.317Z,6.20
2022-10-24T11:40:43.379Z,8.57
2022-10-24T11:45:55.281Z,6.20
2022-10-24T11:51:18.607Z,6.45
2022-10-24T11:56:27.430Z,4.60
2022-10-24T12:01:53.065Z,6.68
2022-10-24T12:07:23.514Z,5.80
2022-10-24T12:12:42.867Z,7.72
2022-10-24T12:18:05.940Z,6.43
2022-10-24T12:23:08.715Z,2.97
2022-10-24T12:28:14.407Z,4.43
2022-10-24T12:33:25.661Z,3.97
2022-10-24T12:39:08.048Z,3.20
2022-10-24T12:44:51.970Z,4.95
2022-10-24T12:49:52.034Z,14.93
2022-10-24T12:54:56.673Z,3.28
2022-10-24T12:59:59.751Z,5.05
2022-10-24T13:05:12.193Z,5.95
2022-10-24T13:10:27.003Z,5.57
2022-10-24T13:15:59.576Z,7.95
2022-10-24T13:21:46.856Z,3.78
2022-10-24T13:26:53.712Z,5.40
2022-10-24T13:31:55.537Z,4.40
2022-10-24T13:37:09.713Z,4.63
2022-10-24T13:42:16.366Z,7.95
2022-10-24T13:47:31.286Z,6.70
2022-10-24T13:52:37.806Z,5.68
2022-10-24T13:57:55.560Z,3.83
2022-10-24T14:03:04.452Z,14.35
2022-10-24T14:08:12.322Z,8.02
2022-10-24T14:13:19.197Z,7.88
2022-10-24T14:18:24.404Z,3.90
2022-10-24T14:23:34.339Z,9.50
2022-10-24T14:28:52.044Z,6.20
2022-10-24T14:34:00.277Z,8.00
2022-10-24T14:39:04.359Z,7.00
2022-10-24T14:44:19.294Z,9.20
2022-10-24T14:49:29.871Z,10.73
2022-10-24T14:54:36.068Z,10.50
2022-10-24T15:00:25.080Z,12.48
2022-10-24T15:05:35.027Z,12.23
2022-10-24T15:10:50.356Z,14.95
2022-10-24T15:15:57.184Z,14.80
2022-10-24T15:21:07.994Z,19.23
2022-10-24T15:26:13.638Z,12.23
2022-10-24T15:31:20.220Z,14.98
2022-10-24T15:36:24.105Z,11.52
2022-10-24T15:41:23.361Z,17.20
2022-10-24T15:46:24.745Z,11.88
2022-10-24T15:51:26.725Z,10.02
2022-10-24T15:56:26.417Z,11.45
2022-10-24T16:01:29.669Z,11.77
2022-10-24T16:06:30.634Z,13.15
2022-10-24T16:11:31.186Z,12.02
2022-10-24T16:16:30.526Z,14.80
2022-10-24T16:21:31.215Z,14.55
2022-10-24T16:26:31.360Z,17.55
2022-10-24T16:31:31.152Z,11.45
2022-10-24T16:36:35.713Z,9.10
2022-10-24T16:41:34.973Z,12.15
2022-10-24T16:46:43.692Z,8.70
2022-10-24T16:51:52.250Z,13.40
2022-10-24T16:57:17.758Z,11.18
2022-10-24T17:02:19.086Z,7.18
2022-10-24T17:07:19.942Z,9.57
2022-10-24T17:12:22.388Z,13.93
2022-10-24T17:27:31.131Z,15.25
2022-10-24T17:32:33.152Z,10.95
2022-10-24T17:37:45.442Z,11.82
2022-10-24T17:47:49.630Z,11.52
2022-10-24T17:52:52.543Z,13.02
2022-10-24T17:57:54.721Z,17.88
2022-10-24T18:02:56.886Z,21.00
2022-10-24T18:08:01.968Z,26.92
2022-10-24T18:13:02.355Z,25.55
2022-10-24T18:18:02.259Z,19.77
2022-10-24T18:23:03.832Z,21.90
2022-10-24T18:28:05.423Z,15.37
2022-10-24T18:33:04.603Z,17.77
2022-10-24T18:38:05.284Z,15.52
2022-10-24T18:43:06.249Z,22.77
2022-10-24T18:48:06.154Z,20.30
2022-10-24T18:53:10.283Z,21.48
2022-10-24T18:58:18.083Z,18.08
2022-10-24T19:03:25.145Z,17.05
2022-10-24T19:08:27.990Z,18.63
2022-10-24T19:13:28.646Z,17.27
2022-10-24T19:18:34.652Z,15.95
2022-10-24T19:23:36.231Z,18.13
2022-10-24T19:28:35.608Z,16.03
2022-10-24T19:33:35.165Z,16.73
2022-10-24T19:38:39.823Z,15.15
2022-10-24T19:43:39.596Z,11.05
2022-10-24T19:48:38.450Z,13.25
2022-10-24T19:53:40.963Z,11.73
2022-10-24T19:58:41.173Z,9.75
2022-10-24T20:03:40.651Z,12.20
2022-10-24T20:08:41.314Z,12.13
2022-10-24T20:13:40.632Z,9.38
2022-10-24T20:19:13.836Z,10.27
2022-10-24T20:24:40.405Z,5.95
2022-10-24T20:30:13.672Z,7.82
2022-10-24T20:35:44.205Z,9.07
2022-10-24T20:46:49.029Z,11.55
2022-10-24T20:52:07.857Z,10.40
2022-10-24T20:57:42.989Z,8.70
2022-10-24T21:02:55.266Z,7.90
2022-10-24T21:08:15.106Z,11.35
2022-10-24T21:13:42.154Z,11.98
2022-10-24T21:19:18.986Z,7.95
2022-10-24T21:30:27.474Z,10.48
2022-10-24T21:35:41.637Z,10.93
2022-10-24T21:47:08.064Z,8.65
2022-10-24T21:57:53.874Z,28.02
2022-10-24T22:02:54.865Z,14.65
2022-10-24T22:08:14.163Z,12.40
2022-10-24T22:13:35.388Z,16.95
2022-10-24T22:18:36.298Z,10.63
2022-10-24T22:23:35.980Z,12.25
2022-10-24T22:28:36.651Z,13.68
2022-10-24T22:33:42.134Z,13.82
2022-10-24T22:38:41.451Z,14.55
2022-10-24T22:43:40.802Z,13.23
2022-10-24T22:48:43.273Z,16.55
2022-10-24T22:53:42.692Z,11.73
2022-10-24T22:58:43.632Z,12.88
2022-10-24T23:04:00.197Z,11.55
2022-10-24T23:08:59.071Z,11.73
2022-10-24T23:13:58.387Z,12.07
2022-10-24T23:18:59.242Z,12.80
2022-10-24T23:23:58.596Z,15.32
2022-10-24T23:29:05.075Z,10.90
2022-10-24T23:34:05.911Z,12.45
2022-10-24T23:39:05.325Z,8.80
2022-10-24T23:44:06.483Z,12.77
2022-10-24T23:49:17.676Z,8.57
2022-10-24T23:54:20.905Z,6.90
2022-10-24T23:59:19.729Z,9.85
